sensor_id;sensor_type;location;lat;lon;timestamp;P1;durP1;ratioP1;P2;durP2;ratioP2
46941;SDS011;32676;52.630;4.896;2023-10-19T00:00:47;11.52;;;7.18;;
46941;SDS011;32676;52.630;4.896;2023-10-19T00:03:14;12.88;;;6.93;;
46941;SDS011;32676;52.630;4.896;2023-10-19T00:05:42;12.15;;;7.45;;
46941;SDS011;32676;52.630;4.896;2023-10-19T00:08:08;15.05;;;7.45;;
46941;SDS011;32676;52.630;4.896;2023-10-19T00:13:14;13.45;;;7.30;;
46941;SDS011;32676;52.630;4.896;2023-10-19T00:15:41;12.32;;;7.10;;
46941;SDS011;32676;52.630;4.896;2023-10-19T00:18:13;13.25;;;7.97;;
46941;SDS011;32676;52.630;4.896;2023-10-19T00:20:46;13.57;;;8.60;;
46941;SDS011;32676;52.630;4.896;2023-10-19T00:23:18;10.82;;;7.18;;
46941;SDS011;32676;52.630;4.896;2023-10-19T00:25:50;11.38;;;6.95;;
46941;SDS011;32676;52.630;4.896;2023-10-19T00:28:18;10.80;;;6.65;;
46941;SDS011;32676;52.630;4.896;2023-10-19T00:30:45;11.45;;;7.78;;
46941;SDS011;32676;52.630;4.896;2023-10-19T00:33:13;13.52;;;7.13;;
46941;SDS011;32676;52.630;4.896;2023-10-19T00:35:43;13.20;;;7.57;;
46941;SDS011;32676;52.630;4.896;2023-10-19T00:38:15;11.57;;;8.25;;
46941;SDS011;32676;52.630;4.896;2023-10-19T00:40:52;14.05;;;8.27;;
46941;SDS011;32676;52.630;4.896;2023-10-19T00:43:33;12.90;;;7.72;;
46941;SDS011;32676;52.630;4.896;2023-10-19T00:46:02;13.43;;;9.15;;
46941;SDS011;32676;52.630;4.896;2023-10-19T00:48:30;14.32;;;8.23;;
46941;SDS011;32676;52.630;4.896;2023-10-19T00:50:59;15.77;;;8.30;;
46941;SDS011;32676;52.630;4.896;2023-10-19T00:53:34;14.90;;;7.50;;
46941;SDS011;32676;52.630;4.896;2023-10-19T00:56:04;12.40;;;8.75;;
46941;SDS011;32676;52.630;4.896;2023-10-19T00:58:35;11.85;;;7.63;;
46941;SDS011;32676;52.630;4.896;2023-10-19T01:01:06;14.50;;;8.57;;
46941;SDS011;32676;52.630;4.896;2023-10-19T01:03:38;12.52;;;8.27;;
46941;SDS011;32676;52.630;4.896;2023-10-19T01:06:04;11.80;;;7.57;;
46941;SDS011;32676;52.630;4.896;2023-10-19T01:08:38;14.95;;;8.15;;
46941;SDS011;32676;52.630;4.896;2023-10-19T01:11:08;11.52;;;7.78;;
46941;SDS011;32676;52.630;4.896;2023-10-19T01:13:38;16.70;;;8.77;;
46941;SDS011;32676;52.630;4.896;2023-10-19T01:16:11;11.32;;;8.60;;
46941;SDS011;32676;52.630;4.896;2023-10-19T01:18:45;14.77;;;8.85;;
46941;SDS011;32676;52.630;4.896;2023-10-19T01:21:12;14.15;;;9.90;;
46941;SDS011;32676;52.630;4.896;2023-10-19T01:23:45;13.25;;;8.10;;
46941;SDS011;32676;52.630;4.896;2023-10-19T01:26:13;11.25;;;8.05;;
46941;SDS011;32676;52.630;4.896;2023-10-19T01:28:43;14.90;;;8.77;;
46941;SDS011;32676;52.630;4.896;2023-10-19T01:31:13;14.25;;;8.57;;
46941;SDS011;32676;52.630;4.896;2023-10-19T01:33:41;12.43;;;8.30;;
46941;SDS011;32676;52.630;4.896;2023-10-19T01:36:09;9.98;;;7.95;;
46941;SDS011;32676;52.630;4.896;2023-10-19T01:38:50;14.18;;;9.23;;
46941;SDS011;32676;52.630;4.896;2023-10-19T01:41:18;18.65;;;9.13;;
46941;SDS011;32676;52.630;4.896;2023-10-19T01:43:45;14.35;;;9.43;;
46941;SDS011;32676;52.630;4.896;2023-10-19T01:46:14;12.45;;;8.43;;
46941;SDS011;32676;52.630;4.896;2023-10-19T01:48:47;11.48;;;8.18;;
46941;SDS011;32676;52.630;4.896;2023-10-19T01:51:15;15.43;;;9.68;;
46941;SDS011;32676;52.630;4.896;2023-10-19T01:53:42;15.32;;;10.30;;
46941;SDS011;32676;52.630;4.896;2023-10-19T01:56:10;11.05;;;8.75;;
46941;SDS011;32676;52.630;4.896;2023-10-19T01:58:38;12.52;;;9.05;;
46941;SDS011;32676;52.630;4.896;2023-10-19T02:01:04;16.40;;;10.43;;
46941;SDS011;32676;52.630;4.896;2023-10-19T02:03:40;13.75;;;10.05;;
46941;SDS011;32676;52.630;4.896;2023-10-19T02:06:07;11.85;;;9.30;;
46941;SDS011;32676;52.630;4.896;2023-10-19T02:08:42;14.63;;;10.65;;
46941;SDS011;32676;52.630;4.896;2023-10-19T02:11:11;14.52;;;10.57;;
46941;SDS011;32676;52.630;4.896;2023-10-19T02:13:43;13.55;;;10.23;;
46941;SDS011;32676;52.630;4.896;2023-10-19T02:16:11;16.67;;;11.35;;
46941;SDS011;32676;52.630;4.896;2023-10-19T02:18:38;17.52;;;12.40;;
46941;SDS011;32676;52.630;4.896;2023-10-19T02:21:04;14.48;;;10.77;;
46941;SDS011;32676;52.630;4.896;2023-10-19T02:23:32;15.00;;;11.68;;
46941;SDS011;32676;52.630;4.896;2023-10-19T02:26:00;13.60;;;10.43;;
46941;SDS011;32676;52.630;4.896;2023-10-19T02:28:29;14.02;;;10.48;;
46941;SDS011;32676;52.630;4.896;2023-10-19T02:30:56;16.15;;;12.40;;
46941;SDS011;32676;52.630;4.896;2023-10-19T02:33:24;15.43;;;11.82;;
46941;SDS011;32676;52.630;4.896;2023-10-19T02:35:51;17.55;;;12.68;;
46941;SDS011;32676;52.630;4.896;2023-10-19T02:38:22;17.02;;;11.80;;
46941;SDS011;32676;52.630;4.896;2023-10-19T02:40:47;15.25;;;11.75;;
46941;SDS011;32676;52.630;4.896;2023-10-19T02:43:14;15.70;;;12.75;;
46941;SDS011;32676;52.630;4.896;2023-10-19T02:45:41;17.35;;;12.63;;
46941;SDS011;32676;52.630;4.896;2023-10-19T02:48:13;17.10;;;13.13;;
46941;SDS011;32676;52.630;4.896;2023-10-19T02:50:39;18.55;;;13.02;;
46941;SDS011;32676;52.630;4.896;2023-10-19T02:53:05;18.23;;;12.95;;
46941;SDS011;32676;52.630;4.896;2023-10-19T02:55:31;19.05;;;13.88;;
46941;SDS011;32676;52.630;4.896;2023-10-19T02:57:58;23.98;;;14.38;;
46941;SDS011;32676;52.630;4.896;2023-10-19T03:00:24;16.80;;;12.95;;
46941;SDS011;32676;52.630;4.896;2023-10-19T03:02:59;16.98;;;13.95;;
46941;SDS011;32676;52.630;4.896;2023-10-19T03:05:26;20.88;;;14.35;;
46941;SDS011;32676;52.630;4.896;2023-10-19T03:07:52;17.83;;;14.65;;
46941;SDS011;32676;52.630;4.896;2023-10-19T03:10:19;20.60;;;14.68;;
46941;SDS011;32676;52.630;4.896;2023-10-19T03:12:49;20.25;;;15.77;;
46941;SDS011;32676;52.630;4.896;2023-10-19T03:15:16;20.65;;;15.35;;
46941;SDS011;32676;52.630;4.896;2023-10-19T03:17:42;19.25;;;15.35;;
46941;SDS011;32676;52.630;4.896;2023-10-19T03:20:11;22.80;;;15.73;;
46941;SDS011;32676;52.630;4.896;2023-10-19T03:22:36;23.10;;;17.35;;
46941;SDS011;32676;52.630;4.896;2023-10-19T03:25:04;21.98;;;15.88;;
46941;SDS011;32676;52.630;4.896;2023-10-19T03:27:56;22.50;;;16.35;;
46941;SDS011;32676;52.630;4.896;2023-10-19T03:30:23;21.13;;;16.30;;
46941;SDS011;32676;52.630;4.896;2023-10-19T03:32:50;21.52;;;16.52;;
46941;SDS011;32676;52.630;4.896;2023-10-19T03:35:18;23.25;;;16.95;;
46941;SDS011;32676;52.630;4.896;2023-10-19T03:37:46;20.27;;;16.17;;
46941;SDS011;32676;52.630;4.896;2023-10-19T03:40:14;24.17;;;17.05;;
46941;SDS011;32676;52.630;4.896;2023-10-19T03:42:50;22.58;;;17.10;;
46941;SDS011;32676;52.630;4.896;2023-10-19T03:45:19;24.42;;;17.52;;
46941;SDS011;32676;52.630;4.896;2023-10-19T03:47:49;24.85;;;17.13;;
46941;SDS011;32676;52.630;4.896;2023-10-19T03:50:15;24.80;;;17.20;;
46941;SDS011;32676;52.630;4.896;2023-10-19T03:52:47;28.38;;;17.60;;
46941;SDS011;32676;52.630;4.896;2023-10-19T03:55:13;26.15;;;18.20;;
46941;SDS011;32676;52.630;4.896;2023-10-19T03:57:44;22.15;;;17.25;;
46941;SDS011;32676;52.630;4.896;2023-10-19T04:00:15;27.25;;;18.83;;
46941;SDS011;32676;52.630;4.896;2023-10-19T04:02:43;26.40;;;18.13;;
46941;SDS011;32676;52.630;4.896;2023-10-19T04:05:11;29.73;;;18.55;;
46941;SDS011;32676;52.630;4.896;2023-10-19T04:07:46;24.42;;;16.77;;
46941;SDS011;32676;52.630;4.896;2023-10-19T04:10:15;28.40;;;18.80;;
46941;SDS011;32676;52.630;4.896;2023-10-19T04:12:54;23.98;;;17.20;;
46941;SDS011;32676;52.630;4.896;2023-10-19T04:15:22;26.02;;;16.08;;
46941;SDS011;32676;52.630;4.896;2023-10-19T04:17:51;26.33;;;17.55;;
46941;SDS011;32676;52.630;4.896;2023-10-19T04:20:20;26.92;;;18.75;;
46941;SDS011;32676;52.630;4.896;2023-10-19T04:22:55;21.17;;;16.43;;
46941;SDS011;32676;52.630;4.896;2023-10-19T04:25:23;25.67;;;16.75;;
46941;SDS011;32676;52.630;4.896;2023-10-19T04:27:51;30.52;;;17.48;;
46941;SDS011;32676;52.630;4.896;2023-10-19T04:30:18;24.95;;;17.65;;
46941;SDS011;32676;52.630;4.896;2023-10-19T04:32:47;28.88;;;17.95;;
46941;SDS011;32676;52.630;4.896;2023-10-19T04:35:15;23.77;;;16.23;;
46941;SDS011;32676;52.630;4.896;2023-10-19T04:37:46;23.92;;;15.95;;
46941;SDS011;32676;52.630;4.896;2023-10-19T04:40:14;27.23;;;14.65;;
46941;SDS011;32676;52.630;4.896;2023-10-19T04:42:40;27.88;;;15.15;;
46941;SDS011;32676;52.630;4.896;2023-10-19T04:45:07;26.80;;;14.48;;
46941;SDS011;32676;52.630;4.896;2023-10-19T04:47:36;25.48;;;13.32;;
46941;SDS011;32676;52.630;4.896;2023-10-19T04:50:03;18.13;;;12.45;;
46941;SDS011;32676;52.630;4.896;2023-10-19T04:52:31;17.98;;;12.52;;
46941;SDS011;32676;52.630;4.896;2023-10-19T04:54:58;22.77;;;10.50;;
46941;SDS011;32676;52.630;4.896;2023-10-19T04:57:27;23.13;;;10.90;;
46941;SDS011;32676;52.630;4.896;2023-10-19T04:59:54;23.92;;;9.35;;
46941;SDS011;32676;52.630;4.896;2023-10-19T05:02:21;14.43;;;9.00;;
46941;SDS011;32676;52.630;4.896;2023-10-19T05:04:48;19.83;;;9.52;;
46941;SDS011;32676;52.630;4.896;2023-10-19T05:07:14;23.00;;;10.13;;
46941;SDS011;32676;52.630;4.896;2023-10-19T05:09:42;14.32;;;8.45;;
46941;SDS011;32676;52.630;4.896;2023-10-19T05:12:09;13.55;;;8.30;;
46941;SDS011;32676;52.630;4.896;2023-10-19T05:14:38;16.35;;;8.35;;
46941;SDS011;32676;52.630;4.896;2023-10-19T05:17:05;16.20;;;8.60;;
46941;SDS011;32676;52.630;4.896;2023-10-19T05:19:32;19.70;;;8.90;;
46941;SDS011;32676;52.630;4.896;2023-10-19T05:22:00;14.55;;;8.82;;
46941;SDS011;32676;52.630;4.896;2023-10-19T05:24:27;26.52;;;7.70;;
46941;SDS011;32676;52.630;4.896;2023-10-19T05:26:55;16.85;;;9.68;;
46941;SDS011;32676;52.630;4.896;2023-10-19T05:29:22;19.48;;;8.50;;
46941;SDS011;32676;52.630;4.896;2023-10-19T05:31:50;11.25;;;7.72;;
46941;SDS011;32676;52.630;4.896;2023-10-19T05:34:19;17.85;;;7.38;;
46941;SDS011;32676;52.630;4.896;2023-10-19T05:36:46;15.55;;;6.75;;
46941;SDS011;32676;52.630;4.896;2023-10-19T05:39:14;11.57;;;6.65;;
46941;SDS011;32676;52.630;4.896;2023-10-19T05:41:40;15.43;;;7.00;;
46941;SDS011;32676;52.630;4.896;2023-10-19T05:44:07;17.10;;;7.10;;
46941;SDS011;32676;52.630;4.896;2023-10-19T05:46:33;12.10;;;7.03;;
46941;SDS011;32676;52.630;4.896;2023-10-19T05:49:01;11.82;;;7.75;;
46941;SDS011;32676;52.630;4.896;2023-10-19T05:51:29;13.48;;;6.80;;
46941;SDS011;32676;52.630;4.896;2023-10-19T05:53:55;10.68;;;6.95;;
46941;SDS011;32676;52.630;4.896;2023-10-19T05:56:26;18.45;;;6.75;;
46941;SDS011;32676;52.630;4.896;2023-10-19T05:58:53;12.75;;;6.03;;
46941;SDS011;32676;52.630;4.896;2023-10-19T06:01:19;19.77;;;6.20;;
46941;SDS011;32676;52.630;4.896;2023-10-19T06:03:47;13.73;;;4.88;;
46941;SDS011;32676;52.630;4.896;2023-10-19T06:06:14;14.18;;;4.72;;
46941;SDS011;32676;52.630;4.896;2023-10-19T06:08:41;13.75;;;5.30;;
46941;SDS011;32676;52.630;4.896;2023-10-19T06:11:07;10.27;;;4.25;;
46941;SDS011;32676;52.630;4.896;2023-10-19T06:13:34;14.55;;;3.90;;
46941;SDS011;32676;52.630;4.896;2023-10-19T06:16:00;16.27;;;4.18;;
46941;SDS011;32676;52.630;4.896;2023-10-19T06:18:27;7.80;;;2.58;;
46941;SDS011;32676;52.630;4.896;2023-10-19T06:20:55;10.70;;;3.17;;
46941;SDS011;32676;52.630;4.896;2023-10-19T06:23:23;11.00;;;3.40;;
46941;SDS011;32676;52.630;4.896;2023-10-19T06:25:51;8.52;;;2.42;;
46941;SDS011;32676;52.630;4.896;2023-10-19T06:28:18;8.35;;;2.50;;
46941;SDS011;32676;52.630;4.896;2023-10-19T06:30:45;7.70;;;2.00;;
46941;SDS011;32676;52.630;4.896;2023-10-19T06:33:13;10.50;;;3.05;;
46941;SDS011;32676;52.630;4.896;2023-10-19T06:35:40;7.15;;;2.55;;
46941;SDS011;32676;52.630;4.896;2023-10-19T06:38:06;14.48;;;2.88;;
46941;SDS011;32676;52.630;4.896;2023-10-19T06:40:36;8.68;;;2.42;;
46941;SDS011;32676;52.630;4.896;2023-10-19T06:43:03;7.60;;;2.08;;
46941;SDS011;32676;52.630;4.896;2023-10-19T06:45:30;6.95;;;2.03;;
46941;SDS011;32676;52.630;4.896;2023-10-19T06:47:58;9.90;;;3.05;;
46941;SDS011;32676;52.630;4.896;2023-10-19T06:50:26;8.88;;;2.47;;
46941;SDS011;32676;52.630;4.896;2023-10-19T06:52:52;12.27;;;1.60;;
46941;SDS011;32676;52.630;4.896;2023-10-19T06:55:20;8.40;;;1.80;;
